This is the latest recevied weather packets stored in our database for station/object SP3WRO-13. If no packets are shown the sender has not sent any weather packets the latest 10 day(s).
| Time | Temp. | Humidity | Pressure | Rain* | Wind** | Luminosity | Snow |
|---|---|---|---|---|---|---|---|
| 1788203956 | 17.22° C | 88% | 1007.7 hPa | - | - | - | - |
| 1788203748 | 17.22° C | 88% | 1007.7 hPa | - | - | - | - |
| 1788202848 | 16.67° C | 91% | 1007.7 hPa | - | - | - | - |
| 1788201948 | 17.78° C | 88% | 1007.7 hPa | - | - | - | - |
| 1788201048 | 17.22° C | 88% | 1007.7 hPa | - | - | - | - |
| 1788200148 | 17.78° C | 87% | 1007.6 hPa | - | - | - | - |
| 1788199248 | 18.33° C | 82% | 1007.7 hPa | - | - | - | - |
| 1788198347 | 20° C | 78% | 1007.4 hPa | - | - | 3 W/m² | - |
| 1788197447 | 20.56° C | 74% | 1007.3 hPa | - | - | 10 W/m² | - |
| 1788196547 | 21.11° C | 72% | 1007.3 hPa | - | - | 26 W/m² | - |
| 1788195647 | 21.11° C | 71% | 1007.3 hPa | - | - | 28 W/m² | - |
| 1788193847 | 21.67° C | 69% | 1007.3 hPa | - | - | 48 W/m² | - |
| 1788192947 | 21.67° C | 70% | 1007.4 hPa | - | - | 54 W/m² | - |
| 1788191147 | 22.22° C | 67% | 1007.5 hPa | - | - | 49 W/m² | - |
| 1788190247 | 22.22° C | 67% | 1007.5 hPa | - | - | 111 W/m² | - |
| 1788189347 | 22.78° C | 65% | 1007.6 hPa | - | - | 90 W/m² | - |
| 1788188447 | 22.78° C | 64% | 1007.6 hPa | - | - | 217 W/m² | - |
| 1788187546 | 23.33° C | 62% | 1007.8 hPa | - | - | 280 W/m² | - |
| 1788186646 | 22.78° C | 65% | 1007.9 hPa | - | - | 326 W/m² | - |
| 1788185746 | 23.33° C | 64% | 1007.9 hPa | - | - | 412 W/m² | - |
| 1788184846 | 23.33° C | 66% | 1007.9 hPa | - | - | 414 W/m² | - |
| 1788183946 | 22.22° C | 65% | 1008 hPa | - | - | 569 W/m² | - |
| 1788182145 | 21.11° C | 71% | 1008.1 hPa | - | - | 232 W/m² | - |
| 1788181245 | 20.56° C | 75% | 1008.3 hPa | - | - | 195 W/m² | - |
| 1788180345 | 20.56° C | 77% | 1008.5 hPa | - | - | 124 W/m² | - |
* Rain since midnight (hover to see other rain measurements)
** Current wind speed in m/s (hover to see current wind gust speed)